Eastwood, United Kingdom
Current Conditions -  °F | °C
As of 11:20 AM on Monday 20 Oct 2014 (Local Time) from EGNX Reporting Station
Few Clouds Few Clouds  
Wind Chill: 13°   Ceiling: Unl
Heat Index: 13°   Visibility: 6mi
Dew Point: 10°   Wind: 16mph
Humidity: 82%   Direction: 230°SW
Pressure: 29.94"   Gusts: NA
Location:  53°N, 1.3°W
Report Text: EGNX 201020Z 23014KT 9999 FEW040 13/10 Q1014
Loading
Personal Weather Stations






























Interactive Weather Map
Tropical Storm Tracking
New forecast layout! Learn more

10-Day Weather Forecast

Advertisements
Track Severe Weather on mobile